Terminal Aerodrome Forecast
Issued by NWS Des Moines, IA

Home | Current Version | Previous Version | Text Only | Print | Product List | Glossary On
Versions: 1 2 3 4 5 6 7 8 9 10 11 12 13 14 15 16 17 18 19 20 21 22 23 24 25 26 27 28 29 30 31 32 33 34 35 36 37 38 39 40 41 42 43 44 45
000
FTUS43 KDMX 110905 AAA
TAFDSM
TAF AMD
KDSM 110905Z 1109/1206 05009KT P6SM BKN025
     FM111000 04007KT P6SM SCT025 BKN040
     FM111400 VRB04KT P6SM BKN040
     FM111900 16005KT P6SM SCT040 BKN090
     FM112300 15005KT 1 1/2SM -SN SCT007 OVC015
     FM120400 14006KT 3SM -SN BKN010=

USA.gov is the U.S. government's official web portal to all federal, state and local government web resources and services.